createdAt,value
2023-08-08T00:00:40.752Z,14.60
2023-08-08T00:03:10.502Z,14.60
2023-08-08T00:05:38.790Z,14.60
2023-08-08T00:08:07.680Z,14.60
2023-08-08T00:10:35.894Z,14.55
2023-08-08T00:13:04.209Z,14.57
2023-08-08T00:15:32.762Z,14.59
2023-08-08T00:18:01.110Z,14.59
2023-08-08T00:20:30.697Z,14.60
2023-08-08T00:22:58.986Z,14.66
2023-08-08T00:25:27.302Z,14.69
2023-08-08T00:27:55.569Z,14.69
2023-08-08T00:30:24.048Z,14.66
2023-08-08T00:32:52.416Z,14.64
2023-08-08T00:35:21.089Z,14.64
2023-08-08T00:37:51.846Z,14.64
2023-08-08T00:40:20.697Z,14.63
2023-08-08T00:42:49.161Z,14.59
2023-08-08T00:45:17.467Z,14.57
2023-08-08T00:47:45.775Z,14.57
2023-08-08T00:50:16.478Z,14.56
2023-08-08T00:52:46.466Z,14.50
2023-08-08T00:55:16.805Z,14.49
2023-08-08T00:57:46.123Z,14.52
2023-08-08T01:01:12.648Z,14.40
2023-08-08T01:03:40.908Z,14.36
2023-08-08T01:06:18.614Z,14.32
2023-08-08T01:08:53.268Z,14.25
2023-08-08T01:11:23.742Z,14.21
2023-08-08T01:13:53.527Z,14.21
2023-08-08T01:16:22.725Z,14.19
2023-08-08T01:18:52.254Z,14.12
2023-08-08T01:21:21.483Z,14.09
2023-08-08T01:23:55.478Z,14.04
2023-08-08T01:26:25.886Z,14.05
2023-08-08T01:28:55.664Z,14.07
2023-08-08T01:31:25.444Z,14.08
2023-08-08T01:33:53.930Z,14.04
2023-08-08T01:36:27.190Z,14.00
2023-08-08T01:39:00.932Z,13.97
2023-08-08T01:41:32.809Z,13.94
2023-08-08T01:44:01.365Z,13.97
2023-08-08T01:46:30.206Z,13.95
2023-08-08T01:49:00.130Z,13.88
2023-08-08T01:51:28.778Z,13.92
2023-08-08T01:53:57.224Z,13.82
2023-08-08T01:56:25.437Z,13.82
2023-08-08T01:58:56.190Z,13.80
2023-08-08T02:01:24.604Z,13.75
2023-08-08T02:03:53.091Z,13.80
2023-08-08T02:06:21.507Z,13.81
2023-08-08T02:08:49.686Z,13.78
2023-08-08T02:11:18.001Z,13.84
2023-08-08T02:13:46.290Z,13.80
2023-08-08T02:16:15.976Z,13.78
2023-08-08T02:18:45.893Z,13.78
2023-08-08T02:21:14.055Z,13.78
2023-08-08T02:23:42.309Z,13.77
2023-08-08T02:26:10.497Z,13.74
2023-08-08T02:28:38.859Z,13.74
2023-08-08T02:31:07.121Z,13.74
2023-08-08T02:33:38.588Z,13.71
2023-08-08T02:36:06.874Z,13.70
2023-08-08T02:38:35.025Z,13.66
2023-08-08T02:41:03.372Z,13.64
2023-08-08T02:43:31.970Z,13.64
2023-08-08T02:46:00.263Z,13.59
2023-08-08T02:48:31.081Z,13.59
2023-08-08T02:51:00.639Z,13.64
2023-08-08T02:53:30.164Z,13.61
2023-08-08T02:55:58.387Z,13.61
2023-08-08T02:58:28.220Z,13.54
2023-08-08T03:00:57.119Z,13.59
2023-08-08T03:03:25.754Z,13.53
2023-08-08T03:05:54.298Z,13.53
2023-08-08T03:08:24.484Z,13.53
2023-08-08T03:10:53.116Z,13.52
2023-08-08T03:13:23.694Z,13.50
2023-08-08T03:15:53.065Z,13.53
2023-08-08T03:18:21.318Z,13.49
2023-08-08T03:20:49.866Z,13.47
2023-08-08T03:23:20.860Z,13.46
2023-08-08T03:25:51.972Z,13.46
2023-08-08T03:28:20.448Z,13.43
2023-08-08T03:30:48.696Z,13.47
2023-08-08T03:33:16.923Z,13.44
2023-08-08T03:35:46.314Z,13.40
2023-08-08T03:38:14.976Z,13.47
2023-08-08T03:40:43.836Z,13.43
2023-08-08T03:43:14.924Z,13.46
2023-08-08T03:45:43.187Z,13.49
2023-08-08T03:48:11.536Z,13.50
2023-08-08T03:50:39.901Z,13.49
2023-08-08T03:53:09.266Z,13.46
2023-08-08T03:55:37.519Z,13.49
2023-08-08T03:58:07.090Z,13.46
2023-08-08T04:00:37.906Z,13.44
2023-08-08T04:03:06.361Z,13.42
2023-08-08T04:05:36.578Z,13.39
2023-08-08T04:08:05.260Z,13.43
2023-08-08T04:10:33.512Z,13.50
2023-08-08T04:13:01.778Z,13.52
2023-08-08T04:15:29.930Z,13.53
2023-08-08T04:18:00.445Z,13.60
2023-08-08T04:20:28.586Z,13.63
2023-08-08T04:22:56.960Z,13.70
2023-08-08T04:25:29.591Z,13.74
2023-08-08T04:27:58.008Z,13.69
2023-08-08T04:30:26.162Z,13.74
2023-08-08T04:32:54.548Z,13.75
2023-08-08T04:35:24.221Z,13.91
2023-08-08T04:37:52.569Z,13.97
2023-08-08T04:40:20.900Z,14.05
2023-08-08T04:42:49.136Z,14.07
2023-08-08T04:45:18.293Z,14.12
2023-08-08T04:47:46.548Z,14.19
2023-08-08T04:50:16.815Z,14.26
2023-08-08T04:52:46.403Z,14.29
2023-08-08T04:55:14.893Z,14.39
2023-08-08T04:57:43.148Z,14.46
2023-08-08T05:00:14.581Z,14.50
2023-08-08T05:02:43.094Z,14.56
2023-08-08T05:05:11.671Z,14.57
2023-08-08T05:07:42.213Z,14.64
2023-08-08T05:10:12.270Z,14.69
2023-08-08T05:12:45.450Z,14.74
2023-08-08T05:15:13.686Z,14.80
2023-08-08T05:17:41.896Z,14.88
2023-08-08T05:20:11.998Z,14.95
2023-08-08T05:22:40.355Z,15.02
2023-08-08T05:25:09.518Z,15.11
2023-08-08T05:27:42.094Z,15.17
2023-08-08T05:30:11.034Z,15.22
2023-08-08T05:32:39.291Z,15.34
2023-08-08T05:35:09.195Z,15.36
2023-08-08T05:37:37.500Z,15.49
2023-08-08T05:40:07.780Z,15.55
2023-08-08T05:42:36.254Z,15.60
2023-08-08T05:45:06.839Z,15.65
2023-08-08T05:47:37.258Z,15.71
2023-08-08T05:50:05.951Z,15.73
2023-08-08T05:52:34.381Z,15.82
2023-08-08T05:55:02.760Z,15.86
2023-08-08T05:57:31.086Z,15.87
2023-08-08T06:00:00.931Z,15.89
2023-08-08T06:02:43.507Z,15.91
2023-08-08T06:05:13.574Z,15.94
2023-08-08T06:07:42.014Z,16.00
2023-08-08T06:10:13.617Z,16.06
2023-08-08T06:12:41.852Z,16.08
2023-08-08T06:15:11.193Z,16.17
2023-08-08T06:17:39.455Z,16.24
2023-08-08T06:20:11.804Z,16.35
2023-08-08T06:22:41.085Z,16.42
2023-08-08T06:25:13.651Z,16.51
2023-08-08T06:27:44.340Z,16.52
2023-08-08T06:30:13.502Z,16.53
2023-08-08T06:32:43.804Z,16.61
2023-08-08T06:35:13.754Z,16.63
2023-08-08T06:37:47.944Z,16.68
2023-08-08T06:40:16.338Z,16.68
2023-08-08T06:42:44.648Z,16.71
2023-08-08T06:45:15.503Z,16.80
2023-08-08T06:47:45.914Z,16.93
2023-08-08T06:50:16.844Z,16.97
2023-08-08T06:52:46.654Z,17.03
2023-08-08T06:55:14.794Z,17.10
2023-08-08T06:57:43.065Z,17.14
2023-08-08T07:00:14.564Z,17.27
2023-08-08T07:02:43.018Z,17.26
2023-08-08T07:05:12.457Z,17.26
2023-08-08T07:07:42.135Z,17.27
2023-08-08T07:10:13.060Z,17.28
2023-08-08T07:12:41.266Z,17.32
2023-08-08T07:15:13.004Z,17.39
2023-08-08T07:17:41.359Z,17.49
2023-08-08T07:20:14.997Z,17.49
2023-08-08T07:22:44.967Z,17.64
2023-08-08T07:25:14.710Z,17.69
2023-08-08T07:27:43.102Z,17.75
2023-08-08T07:30:15.476Z,17.74
2023-08-08T07:32:45.997Z,17.90
2023-08-08T07:35:14.330Z,17.97
2023-08-08T07:37:42.640Z,18.12
2023-08-08T07:40:19.991Z,18.27
2023-08-08T07:42:48.972Z,18.41
2023-08-08T07:45:18.041Z,18.48
2023-08-08T07:47:46.415Z,18.62
2023-08-08T07:50:15.160Z,18.60
2023-08-08T07:52:43.734Z,18.52
2023-08-08T07:55:12.125Z,18.51
2023-08-08T07:57:42.051Z,18.67
2023-08-08T08:00:13.252Z,18.75
2023-08-08T08:02:43.951Z,18.76
2023-08-08T08:05:12.800Z,18.81
2023-08-08T08:07:42.812Z,18.81
2023-08-08T08:10:14.494Z,18.69
2023-08-08T08:12:45.449Z,18.69
2023-08-08T08:15:16.982Z,18.69
2023-08-08T08:17:45.351Z,18.81
2023-08-08T08:20:14.327Z,18.92
2023-08-08T08:22:42.630Z,19.02
2023-08-08T08:25:11.258Z,19.05
2023-08-08T08:27:39.768Z,18.99
2023-08-08T08:30:11.554Z,18.99
2023-08-08T08:32:41.756Z,18.92
2023-08-08T08:35:11.190Z,18.96
2023-08-08T08:37:39.353Z,18.95
2023-08-08T08:40:08.735Z,18.91
2023-08-08T08:42:37.557Z,19.07
2023-08-08T08:45:07.054Z,19.26
2023-08-08T08:47:39.057Z,19.30
2023-08-08T08:50:08.494Z,19.16
2023-08-08T08:52:38.146Z,19.05
2023-08-08T08:55:08.341Z,19.23
2023-08-08T08:57:38.410Z,19.33
2023-08-08T09:00:09.088Z,19.40
2023-08-08T09:02:39.276Z,19.55
2023-08-08T09:05:12.618Z,19.74
2023-08-08T09:07:42.511Z,19.79
2023-08-08T09:10:11.036Z,19.86
2023-08-08T09:12:39.780Z,19.92
2023-08-08T09:15:11.305Z,19.96
2023-08-08T09:17:48.462Z,20.12
2023-08-08T09:20:19.597Z,20.32
2023-08-08T09:22:49.444Z,20.44
2023-08-08T09:25:17.860Z,20.20
2023-08-08T09:27:47.125Z,20.09
2023-08-08T09:30:15.538Z,20.11
2023-08-08T09:32:47.100Z,20.11
2023-08-08T09:35:16.015Z,20.12
2023-08-08T09:37:45.768Z,20.11
2023-08-08T09:40:14.148Z,20.16
2023-08-08T09:42:43.102Z,20.22
2023-08-08T09:45:13.040Z,20.34
2023-08-08T09:47:43.272Z,20.49
2023-08-08T09:50:13.013Z,20.44
2023-08-08T09:52:42.808Z,20.41
2023-08-08T09:55:15.602Z,20.58
2023-08-08T09:57:48.382Z,20.77
2023-08-08T10:00:18.113Z,20.84
2023-08-08T10:02:50.012Z,20.81
2023-08-08T10:05:20.318Z,20.76
2023-08-08T10:07:52.578Z,20.85
2023-08-08T10:10:24.604Z,20.96
2023-08-08T10:12:52.912Z,21.04
2023-08-08T10:15:27.896Z,21.14
2023-08-08T10:17:57.625Z,21.05
2023-08-08T10:20:29.490Z,21.04
2023-08-08T10:23:00.515Z,20.99
2023-08-08T10:25:32.966Z,21.06
2023-08-08T10:28:24.081Z,21.09
2023-08-08T10:30:56.774Z,21.15
2023-08-08T10:33:26.767Z,21.21
2023-08-08T10:36:08.085Z,21.19
2023-08-08T10:38:44.049Z,21.26
2023-08-08T10:41:17.080Z,21.25
2023-08-08T10:43:52.377Z,21.23
2023-08-08T10:46:27.364Z,21.14
2023-08-08T10:48:57.474Z,21.18
2023-08-08T10:51:35.714Z,21.22
2023-08-08T10:54:07.232Z,21.29
2023-08-08T10:56:37.640Z,21.23
2023-08-08T10:59:16.668Z,21.36
2023-08-08T11:01:47.572Z,21.36
2023-08-08T11:04:18.087Z,21.42
2023-08-08T11:06:51.465Z,21.60
2023-08-08T11:09:19.992Z,21.64
2023-08-08T11:11:52.194Z,21.81
2023-08-08T11:14:22.340Z,22.04
2023-08-08T11:16:52.292Z,22.15
2023-08-08T11:19:21.580Z,22.35
2023-08-08T11:21:51.629Z,22.46
2023-08-08T11:24:19.867Z,22.52
2023-08-08T11:26:49.116Z,22.63
2023-08-08T11:29:19.456Z,22.59
2023-08-08T11:31:50.858Z,22.59
2023-08-08T11:34:19.928Z,22.79
2023-08-08T11:36:56.256Z,23.00
2023-08-08T11:39:25.665Z,23.00
2023-08-08T11:41:56.939Z,22.99
2023-08-08T11:44:29.384Z,23.18
2023-08-08T11:47:01.552Z,23.37
2023-08-08T11:49:33.760Z,23.14
2023-08-08T11:52:04.441Z,23.03
2023-08-08T11:54:33.486Z,23.20
2023-08-08T11:57:03.645Z,23.37
2023-08-08T11:59:37.859Z,23.59
2023-08-08T12:02:06.281Z,23.70
2023-08-08T12:04:35.850Z,23.70
2023-08-08T12:07:06.370Z,23.61
2023-08-08T12:09:35.052Z,23.77
2023-08-08T12:12:04.494Z,23.58
2023-08-08T12:14:37.398Z,23.48
2023-08-08T12:17:11.223Z,23.87
2023-08-08T12:19:48.376Z,24.10
2023-08-08T12:22:21.011Z,24.03
2023-08-08T12:24:50.292Z,23.93
2023-08-08T12:27:18.701Z,23.76
2023-08-08T12:29:46.959Z,23.72
2023-08-08T12:32:15.309Z,23.86
2023-08-08T12:34:45.516Z,24.03
2023-08-08T12:37:13.943Z,23.96
2023-08-08T12:39:43.645Z,23.92
2023-08-08T12:42:14.975Z,24.02
2023-08-08T12:44:43.320Z,24.06
2023-08-08T12:47:13.179Z,23.97
2023-08-08T12:49:42.562Z,23.87
2023-08-08T12:52:11.836Z,23.41
2023-08-08T12:54:41.043Z,23.06
2023-08-08T12:57:10.674Z,22.83
2023-08-08T12:59:39.835Z,22.55
2023-08-08T13:02:09.240Z,22.17
2023-08-08T13:04:37.434Z,21.81
2023-08-08T13:07:09.347Z,21.69
2023-08-08T13:09:38.693Z,21.39
2023-08-08T13:12:07.665Z,21.28
2023-08-08T13:14:39.373Z,21.33
2023-08-08T13:17:08.556Z,21.28
2023-08-08T13:19:37.958Z,21.36
2023-08-08T13:22:06.604Z,21.33
2023-08-08T13:24:34.980Z,21.29
2023-08-08T13:27:04.309Z,21.19
2023-08-08T13:29:33.674Z,21.23
2023-08-08T13:32:03.751Z,21.28
2023-08-08T13:34:32.087Z,21.23
2023-08-08T13:37:00.529Z,21.29
2023-08-08T13:39:30.218Z,21.22
2023-08-08T13:42:00.769Z,21.08
2023-08-08T13:44:29.626Z,20.94
2023-08-08T13:46:59.161Z,20.94
2023-08-08T13:49:28.820Z,20.78
2023-08-08T13:51:58.375Z,20.91
2023-08-08T13:54:27.548Z,20.91
2023-08-08T13:56:55.856Z,20.92
2023-08-08T13:59:24.003Z,20.84
2023-08-08T14:01:52.333Z,20.76
2023-08-08T14:04:20.708Z,20.80
2023-08-08T14:06:53.336Z,20.70
2023-08-08T14:09:21.777Z,20.64
2023-08-08T14:11:52.186Z,20.73
2023-08-08T14:14:20.386Z,20.77
2023-08-08T14:16:53.892Z,20.87
2023-08-08T14:19:24.412Z,20.92
2023-08-08T14:21:55.156Z,20.88
2023-08-08T14:24:24.138Z,21.05
2023-08-08T14:26:53.611Z,20.99
2023-08-08T14:29:24.074Z,20.95
2023-08-08T14:32:00.403Z,20.80
2023-08-08T14:34:38.837Z,20.76
2023-08-08T14:37:08.846Z,20.83
2023-08-08T14:39:37.147Z,20.96
2023-08-08T14:42:09.697Z,21.14
2023-08-08T14:44:39.088Z,21.28
2023-08-08T14:47:15.518Z,21.36
2023-08-08T14:49:44.884Z,21.31
2023-08-08T14:52:20.073Z,21.46
2023-08-08T14:54:50.591Z,21.62
2023-08-08T14:57:20.128Z,21.83
2023-08-08T14:59:49.622Z,22.17
2023-08-08T15:02:19.556Z,22.27
2023-08-08T15:04:50.853Z,22.24
2023-08-08T15:07:23.320Z,22.21
2023-08-08T15:09:55.407Z,22.36
2023-08-08T15:12:23.704Z,22.49
2023-08-08T15:14:53.070Z,22.60
2023-08-08T15:17:50.285Z,22.73
2023-08-08T15:20:18.688Z,22.83
2023-08-08T15:22:53.852Z,22.99
2023-08-08T15:25:22.203Z,23.18
2023-08-08T15:27:51.524Z,23.37
2023-08-08T15:30:45.016Z,23.35
2023-08-08T15:33:13.315Z,23.30
2023-08-08T15:35:48.902Z,23.20
2023-08-08T15:38:18.725Z,23.20
2023-08-08T15:40:48.115Z,23.11
2023-08-08T15:43:16.443Z,23.07
2023-08-08T15:45:44.900Z,23.07
2023-08-08T15:48:14.834Z,23.11
2023-08-08T15:50:43.118Z,23.11
2023-08-08T15:53:12.352Z,23.06
2023-08-08T15:55:42.259Z,23.07
2023-08-08T15:58:10.699Z,23.00
2023-08-08T16:00:38.985Z,22.80
2023-08-08T16:03:08.508Z,22.76
2023-08-08T16:05:37.305Z,22.65
2023-08-08T16:08:08.203Z,22.65
2023-08-08T16:10:36.772Z,22.56
2023-08-08T16:13:07.411Z,22.45
2023-08-08T16:15:36.633Z,22.39
2023-08-08T16:18:07.402Z,22.34
2023-08-08T16:20:38.051Z,22.29
2023-08-08T16:23:07.403Z,22.35
2023-08-08T16:25:35.897Z,22.34
2023-08-08T16:28:31.654Z,22.34
2023-08-08T16:31:08.856Z,22.34
2023-08-08T16:33:43.202Z,22.27
2023-08-08T16:36:11.708Z,22.22
2023-08-08T16:38:42.277Z,22.15
2023-08-08T16:41:11.280Z,22.11
2023-08-08T16:43:44.195Z,22.04
2023-08-08T16:46:15.243Z,22.00
2023-08-08T16:48:45.145Z,21.88
2023-08-08T16:51:13.544Z,21.88
2023-08-08T16:53:43.256Z,21.90
2023-08-08T16:56:22.744Z,21.93
2023-08-08T16:58:53.886Z,21.93
2023-08-08T17:01:24.297Z,21.90
2023-08-08T17:03:55.986Z,21.87
2023-08-08T17:06:25.368Z,21.84
2023-08-08T17:08:55.777Z,21.84
2023-08-08T17:11:28.093Z,21.81
2023-08-08T17:14:01.756Z,21.77
2023-08-08T17:16:32.842Z,21.73
2023-08-08T17:19:02.212Z,21.70
2023-08-08T17:21:34.242Z,21.70
2023-08-08T17:24:05.476Z,21.66
2023-08-08T17:26:36.703Z,21.66
2023-08-08T17:29:08.724Z,21.62
2023-08-08T17:31:38.558Z,21.53
2023-08-08T17:34:08.600Z,21.46
2023-08-08T17:36:40.099Z,21.45
2023-08-08T17:39:10.214Z,21.42
2023-08-08T17:41:44.015Z,21.36
2023-08-08T17:44:14.846Z,21.32
2023-08-08T17:46:44.327Z,21.21
2023-08-08T17:49:14.061Z,21.05
2023-08-08T17:51:42.628Z,20.85
2023-08-08T17:54:12.994Z,20.57
2023-08-08T17:56:42.760Z,20.37
2023-08-08T17:59:13.943Z,20.18
2023-08-08T18:01:44.874Z,20.04
2023-08-08T18:04:14.626Z,19.95
2023-08-08T18:06:44.006Z,19.79
2023-08-08T18:09:14.190Z,19.61
2023-08-08T18:11:47.762Z,19.60
2023-08-08T18:14:22.849Z,19.54
2023-08-08T18:16:52.379Z,19.49
2023-08-08T18:19:23.428Z,19.49
2023-08-08T18:21:55.796Z,19.53
2023-08-08T18:24:27.464Z,19.46
2023-08-08T18:26:56.589Z,19.36
2023-08-08T18:29:35.684Z,19.26
2023-08-08T18:32:05.909Z,19.23
2023-08-08T18:34:40.016Z,19.13
2023-08-08T18:37:11.621Z,19.03
2023-08-08T18:40:09.326Z,18.98
2023-08-08T18:42:40.344Z,18.88
2023-08-08T18:45:15.233Z,18.69
2023-08-08T18:47:44.060Z,18.60
2023-08-08T18:50:14.102Z,18.51
2023-08-08T18:52:44.272Z,18.40
2023-08-08T18:55:15.199Z,18.26
2023-08-08T18:57:46.549Z,18.16
2023-08-08T19:00:21.919Z,18.09
2023-08-08T19:02:53.438Z,17.99
2023-08-08T19:05:23.158Z,17.95
2023-08-08T19:07:56.277Z,17.92
2023-08-08T19:10:26.936Z,17.82
2023-08-08T19:12:57.426Z,17.76
2023-08-08T19:15:32.641Z,17.64
2023-08-08T19:18:07.414Z,17.45
2023-08-08T19:20:38.556Z,17.30
2023-08-08T19:23:17.020Z,17.20
2023-08-08T19:25:49.422Z,17.06
2023-08-08T19:28:21.858Z,17.06
2023-08-08T19:30:54.865Z,17.00
2023-08-08T19:33:26.232Z,16.99
2023-08-08T19:36:01.626Z,16.92
2023-08-08T19:38:30.879Z,16.87
2023-08-08T19:41:01.147Z,16.82
2023-08-08T19:43:32.819Z,16.73
2023-08-08T19:46:04.951Z,16.65
2023-08-08T19:48:34.731Z,16.61
2023-08-08T19:51:05.078Z,16.51
2023-08-08T19:53:35.776Z,16.42
2023-08-08T19:56:11.084Z,16.29
2023-08-08T19:58:42.949Z,16.06
2023-08-08T20:01:14.682Z,15.89
2023-08-08T20:03:44.547Z,15.83
2023-08-08T20:06:13.814Z,15.79
2023-08-08T20:08:47.470Z,15.76
2023-08-08T20:11:17.905Z,15.70
2023-08-08T20:13:47.140Z,15.60
2023-08-08T20:16:20.388Z,15.60
2023-08-08T20:18:50.253Z,15.58
2023-08-08T20:21:23.527Z,15.56
2023-08-08T20:23:54.099Z,15.55
2023-08-08T20:26:24.056Z,15.31
2023-08-08T20:28:56.371Z,15.15
2023-08-08T20:31:29.061Z,15.02
2023-08-08T20:33:59.277Z,14.93
2023-08-08T20:36:35.467Z,14.93
2023-08-08T20:39:07.594Z,14.91
2023-08-08T20:41:36.968Z,14.90
2023-08-08T20:44:10.531Z,14.85
2023-08-08T20:46:44.035Z,14.81
2023-08-08T20:49:16.250Z,14.66
2023-08-08T20:51:54.003Z,14.67
2023-08-08T20:54:23.039Z,14.67
2023-08-08T20:56:59.753Z,14.63
2023-08-08T20:59:32.464Z,14.67
2023-08-08T21:02:02.923Z,14.53
2023-08-08T21:04:32.618Z,14.45
2023-08-08T21:07:02.367Z,14.30
2023-08-08T21:09:31.156Z,14.29
2023-08-08T21:12:01.846Z,14.17
2023-08-08T21:14:30.401Z,14.14
2023-08-08T21:17:02.472Z,14.08
2023-08-08T21:19:33.009Z,14.07
2023-08-08T21:22:04.028Z,14.04
2023-08-08T21:24:32.662Z,13.92
2023-08-08T21:27:02.296Z,13.88
2023-08-08T21:29:31.950Z,13.84
2023-08-08T21:32:01.139Z,13.80
2023-08-08T21:34:29.559Z,13.71
2023-08-08T21:37:01.082Z,13.70
2023-08-08T21:39:31.931Z,13.67
2023-08-08T21:42:01.624Z,13.59
2023-08-08T21:44:33.468Z,13.60
2023-08-08T21:47:02.082Z,13.61
2023-08-08T21:49:30.769Z,13.57
2023-08-08T21:52:02.028Z,13.52
2023-08-08T21:54:31.607Z,13.54
2023-08-08T21:57:03.186Z,13.52
2023-08-08T21:59:32.094Z,13.49
2023-08-08T22:02:03.790Z,13.46
2023-08-08T22:04:50.311Z,13.46
2023-08-08T22:07:22.667Z,13.43
2023-08-08T22:09:51.655Z,13.40
2023-08-08T22:16:44.609Z,13.42
2023-08-08T22:19:40.324Z,13.33
2023-08-08T22:22:09.016Z,13.39
2023-08-08T22:24:39.470Z,13.38
2023-08-08T22:28:02.999Z,13.30
2023-08-08T22:31:01.331Z,13.30
2023-08-08T22:33:32.178Z,13.27
2023-08-08T22:36:01.555Z,13.22
2023-08-08T22:38:30.154Z,13.19
2023-08-08T22:41:02.091Z,13.16
2023-08-08T22:43:31.521Z,13.19
2023-08-08T22:46:00.805Z,13.18
2023-08-08T22:48:29.031Z,13.19
2023-08-08T22:50:57.205Z,13.18
2023-08-08T22:53:26.607Z,13.22
2023-08-08T22:55:54.942Z,13.18
2023-08-08T22:58:24.542Z,13.13
2023-08-08T23:00:52.688Z,13.12
2023-08-08T23:03:21.361Z,13.09
2023-08-08T23:05:49.548Z,13.09
2023-08-08T23:08:26.358Z,13.08
2023-08-08T23:10:54.821Z,12.99
2023-08-08T23:13:24.708Z,12.98
2023-08-08T23:15:53.057Z,12.91
2023-08-08T23:18:23.271Z,12.89
2023-08-08T23:20:51.658Z,12.87
2023-08-08T23:23:23.852Z,12.83
2023-08-08T23:25:53.214Z,12.80
2023-08-08T23:28:25.247Z,12.71
2023-08-08T23:35:19.506Z,12.68
2023-08-08T23:37:47.781Z,12.67
2023-08-08T23:40:16.716Z,12.64
2023-08-08T23:47:04.986Z,12.51
2023-08-08T23:53:52.670Z,12.19
2023-08-08T23:56:26.977Z,12.13
2023-08-08T23:59:07.714Z,12.06
